Time;durP1;ratioP1;P1;durP2;ratioP2;P2;SDS_P1;SDS_P2;PMS_P1;PMS_P2;Temp;Humidity;BMP_temperature;BMP_pressure;BME280_temperature;BME280_humidity;BME280_pressure;Samples;Min_cycle;Max_cycle;Signal;HPM_P1;HPM_P2
2023/01/25 00:00:48;;;;;;;20.37;13.07;;;0.10;99.90;-0.70;102397;;;;540122;262;24173;-75
2023/01/25 00:03:16;;;;;;;21.03;13.93;;;0.00;99.90;-0.70;102398;;;;540310;262;24171;-78
2023/01/25 00:05:44;;;;;;;22.33;14.90;;;0.00;99.90;-0.70;102395;;;;540443;262;24172;-78
2023/01/25 00:08:13;;;;;;;20.23;13.27;;;0.00;99.90;-0.70;102398;;;;540346;262;24218;-74
2023/01/25 00:10:42;;;;;;;27.67;14.67;;;0.10;99.90;-0.70;102388;;;;540190;262;24165;-74
2023/01/25 00:13:10;;;;;;;21.17;13.83;;;0.10;99.90;-0.70;102383;;;;540087;262;24188;-74
2023/01/25 00:15:39;;;;;;;21.67;13.93;;;0.10;99.90;-0.70;102376;;;;535468;262;35865;-73
2023/01/25 00:18:07;;;;;;;16.80;8.97;;;0.10;99.90;-0.70;102377;;;;540129;262;24171;-76
2023/01/25 00:20:35;;;;;;;13.43;7.40;;;0.10;99.90;-0.60;102368;;;;540266;262;24177;-75
2023/01/25 00:23:03;;;;;;;20.00;11.27;;;0.10;99.90;-0.70;102368;;;;535578;262;46771;-73
2023/01/25 00:25:31;;;;;;;15.07;8.87;;;0.10;99.90;-0.70;102367;;;;540280;262;24238;-73
2023/01/25 00:27:59;;;;;;;8.90;6.27;;;0.10;99.90;-0.70;102358;;;;540206;262;24191;-74
2023/01/25 00:30:27;;;;;;;18.00;7.93;;;0.10;99.90;-0.70;102372;;;;540224;262;24220;-74
2023/01/25 00:32:57;;;;;;;19.93;8.03;;;0.10;99.90;-0.70;102361;;;;539931;262;24217;-75
2023/01/25 00:35:25;;;;;;;14.00;8.67;;;0.10;99.90;-0.70;102350;;;;538488;262;24225;-75
2023/01/25 00:37:53;;;;;;;17.20;12.07;;;0.10;99.90;-0.70;102358;;;;538625;262;24181;-77
2023/01/25 00:40:21;;;;;;;21.27;12.33;;;0.10;99.90;-0.70;102349;;;;540638;262;24179;-77
2023/01/25 00:42:49;;;;;;;20.37;13.27;;;0.00;99.90;-0.70;102341;;;;540203;262;24220;-77
2023/01/25 00:45:17;;;;;;;19.63;13.43;;;0.00;99.90;-0.80;102340;;;;540782;262;24203;-76
2023/01/25 00:47:45;;;;;;;20.33;13.67;;;0.00;99.90;-0.80;102332;;;;541035;262;24199;-79
2023/01/25 00:50:13;;;;;;;21.03;13.97;;;0.00;99.90;-0.80;102328;;;;540662;262;24243;-77
2023/01/25 00:52:41;;;;;;;21.58;12.13;;;0.00;99.90;-0.80;102327;;;;531074;262;35891;-74
2023/01/25 00:55:09;;;;;;;15.50;8.07;;;0.00;99.90;-0.80;102328;;;;540381;262;24177;-74
2023/01/25 00:57:37;;;;;;;16.60;8.17;;;0.00;99.90;-0.90;102322;;;;538962;262;24260;-75
2023/01/25 01:00:05;;;;;;;21.03;11.50;;;-0.10;99.90;-0.80;102318;;;;540570;262;24186;-74
2023/01/25 01:02:33;;;;;;;20.63;12.90;;;-0.10;99.90;-0.80;102320;;;;538967;262;24215;-77
2023/01/25 01:05:01;;;;;;;19.13;13.13;;;-0.10;99.90;-0.90;102313;;;;539935;262;24209;-73
2023/01/25 01:07:29;;;;;;;23.30;14.77;;;-0.10;99.90;-0.90;102306;;;;540174;262;24179;-72
2023/01/25 01:09:58;;;;;;;19.23;13.30;;;-0.10;99.90;-0.90;102308;;;;540105;262;24209;-73
2023/01/25 01:12:25;;;;;;;25.55;17.30;;;-0.10;99.90;-1.00;102299;;;;535436;262;35866;-74
2023/01/25 01:14:53;;;;;;;16.00;8.17;;;-0.20;99.90;-1.00;102297;;;;540086;262;24224;-75
2023/01/25 01:17:22;;;;;;;13.27;8.30;;;-0.20;99.90;-1.00;102293;;;;540185;262;24184;-73
2023/01/25 01:19:51;;;;;;;18.07;12.13;;;-0.20;99.90;-1.00;102286;;;;540111;262;25196;-73
2023/01/25 01:22:19;;;;;;;20.83;14.97;;;-0.30;99.90;-1.00;102284;;;;539793;262;24178;-73
2023/01/25 01:24:50;;;;;;;21.13;13.43;;;-0.30;99.90;-1.10;102287;;;;539893;262;24179;-74
2023/01/25 01:27:14;;;;;;;22.13;15.03;;;-0.30;99.90;-1.10;102284;;;;539918;262;24174;-74
2023/01/25 01:29:42;;;;;;;20.07;14.57;;;-0.30;99.90;-1.10;102282;;;;538813;262;24161;-72
2023/01/25 01:32:11;;;;;;;22.70;15.10;;;-0.30;99.90;-1.10;102290;;;;540217;262;24169;-73
2023/01/25 01:34:38;;;;;;;20.73;14.40;;;-0.30;99.90;-1.10;102288;;;;540192;262;24202;-73
2023/01/25 01:37:06;;;;;;;22.97;15.03;;;-0.40;99.90;-1.20;102284;;;;540220;262;24184;-75
2023/01/25 01:39:35;;;;;;;22.80;15.20;;;-0.40;99.90;-1.20;102285;;;;540173;262;24201;-72
2023/01/25 01:42:04;;;;;;;20.00;14.50;;;-0.40;99.90;-1.20;102297;;;;540192;262;24176;-74
2023/01/25 01:44:51;;;;;;;19.10;13.83;;;-0.50;99.90;-1.20;102292;;;;538936;262;24168;-73
2023/01/25 01:47:22;;;;;;;24.20;15.60;;;-0.50;99.90;-1.30;102301;;;;538959;262;24216;-74
2023/01/25 01:49:54;;;;;;;20.40;14.40;;;-0.50;99.90;-1.30;102291;;;;538834;262;24174;-77
2023/01/25 01:52:24;;;;;;;22.33;14.83;;;-0.50;99.90;-1.30;102289;;;;538027;262;24216;-73
2023/01/25 01:55:10;;;;;;;25.90;15.80;;;-0.50;99.90;-1.30;102287;;;;540436;262;24194;-78
2023/01/25 01:57:38;;;;;;;22.60;15.63;;;-0.50;99.90;-1.40;102285;;;;540022;262;24224;-77
2023/01/25 02:00:21;;;;;;;22.07;14.83;;;-0.60;99.90;-1.40;102272;;;;557415;256;24150;-77
2023/01/25 02:02:53;;;;;;;21.00;15.00;;;-0.60;99.90;-1.40;102269;;;;547745;262;24214;-76
2023/01/25 02:05:22;;;;;;;21.10;15.63;;;-0.60;99.90;-1.50;102256;;;;546530;257;24208;-75
2023/01/25 02:07:50;;;;;;;22.07;16.07;;;-0.70;99.90;-1.50;102253;;;;528484;262;24181;-75
2023/01/25 02:10:18;;;;;;;20.70;14.80;;;-0.80;99.90;-1.60;102250;;;;539475;262;24200;-76
2023/01/25 02:12:46;;;;;;;25.10;17.40;;;-0.80;99.90;-1.60;102251;;;;534737;262;35847;-75
2023/01/25 02:15:14;;;;;;;18.70;9.10;;;-0.80;99.90;-1.60;102255;;;;539166;262;24247;-72
2023/01/25 02:17:42;;;;;;;23.43;15.47;;;-0.80;99.90;-1.60;102258;;;;540378;262;24177;-74
2023/01/25 02:20:19;;;;;;;21.17;15.63;;;-0.80;99.90;-1.60;102251;;;;541162;262;24211;-73
2023/01/25 02:22:52;;;;;;;23.43;15.37;;;-0.80;99.90;-1.60;102246;;;;534682;262;24177;-73
2023/01/25 02:25:20;;;;;;;24.23;15.30;;;-0.80;99.90;-1.70;102239;;;;544386;262;24173;-75
2023/01/25 02:27:48;;;;;;;25.00;15.10;;;-0.80;99.90;-1.70;102246;;;;541118;262;24214;-74
2023/01/25 02:30:16;;;;;;;25.57;15.33;;;-0.90;99.90;-1.70;102245;;;;549718;257;24168;-74
2023/01/25 02:32:44;;;;;;;23.63;15.57;;;-0.90;99.90;-1.70;102249;;;;534824;262;24176;-76
2023/01/25 02:35:21;;;;;;;21.50;15.47;;;-0.90;99.90;-1.70;102248;;;;539879;262;24191;-75
2023/01/25 02:37:46;;;;;;;22.23;15.03;;;-0.90;99.90;-1.80;102243;;;;538097;262;24250;-73
2023/01/25 02:40:14;;;;;;;20.80;14.93;;;-1.00;99.90;-1.80;102239;;;;538592;262;24202;-76
2023/01/25 02:42:42;;;;;;;22.70;14.83;;;-1.00;99.90;-1.80;102241;;;;539831;262;24228;-75
2023/01/25 02:45:10;;;;;;;21.17;15.27;;;-1.00;99.90;-1.80;102235;;;;538597;262;24208;-73
2023/01/25 02:47:38;;;;;;;22.27;15.43;;;-1.10;99.90;-1.90;102226;;;;538454;262;24310;-74
2023/01/25 02:50:11;;;;;;;18.17;14.03;;;-1.10;99.90;-1.80;102234;;;;538433;262;24192;-74
2023/01/25 02:52:35;;;;;;;23.23;15.83;;;-1.10;99.90;-1.90;102226;;;;538397;262;24185;-75
2023/01/25 02:55:04;;;;;;;22.23;15.00;;;-1.10;99.90;-1.90;102219;;;;539883;262;24240;-76
2023/01/25 02:57:33;;;;;;;21.47;14.63;;;-1.10;99.90;-1.80;102221;;;;538622;262;24209;-76
2023/01/25 03:00:01;;;;;;;18.97;14.63;;;-1.10;99.90;-1.90;102208;;;;539882;262;24197;-73
2023/01/25 03:02:30;;;;;;;19.97;14.87;;;-1.10;99.90;-1.90;102217;;;;538931;262;24235;-73
2023/01/25 03:04:58;;;;;;;20.57;15.87;;;-1.10;99.90;-1.90;102225;;;;540250;262;24169;-75
2023/01/25 03:07:26;;;;;;;19.30;14.77;;;-1.10;99.90;-1.90;102218;;;;540330;262;24164;-76
2023/01/25 03:09:54;;;;;;;21.57;15.90;;;-1.10;99.90;-1.90;102212;;;;541558;262;24210;-78
2023/01/25 03:12:22;;;;;;;21.77;16.77;;;-1.10;99.90;-1.90;102220;;;;541069;262;24180;-77
2023/01/25 03:14:49;;;;;;;21.90;15.30;;;-1.10;99.90;-1.90;102221;;;;536065;262;24193;-77
2023/01/25 03:17:17;;;;;;;23.67;16.40;;;-1.10;99.90;-1.80;102221;;;;540780;262;24289;-73
2023/01/25 03:19:45;;;;;;;21.30;15.93;;;-1.10;99.90;-1.90;102204;;;;540584;262;24166;-76
2023/01/25 03:22:13;;;;;;;23.00;16.50;;;-1.10;99.90;-1.90;102201;;;;540564;262;24182;-77
2023/01/25 03:24:41;;;;;;;24.63;17.23;;;-1.10;99.90;-1.90;102202;;;;540635;262;24179;-76
2023/01/25 03:27:17;;;;;;;22.37;16.17;;;-1.10;99.90;-1.90;102201;;;;540426;262;24197;-75
2023/01/25 03:29:43;;;;;;;21.63;15.90;;;-1.10;99.90;-2.00;102193;;;;540301;262;24237;-75
2023/01/25 03:32:11;;;;;;;21.03;15.73;;;-1.20;99.90;-2.00;102196;;;;546659;260;24202;-74
2023/01/25 03:34:39;;;;;;;27.47;16.60;;;-1.20;99.90;-2.10;102184;;;;540816;262;24215;-73
2023/01/25 03:37:10;;;;;;;23.47;16.47;;;-1.20;99.90;-2.10;102193;;;;540036;262;24183;-75
2023/01/25 03:39:34;;;;;;;23.93;16.03;;;-1.30;99.90;-2.00;102193;;;;546237;262;24222;-75
2023/01/25 03:42:02;;;;;;;22.20;18.55;;;-1.20;99.90;-2.00;102190;;;;535331;262;35847;-75
2023/01/25 03:44:30;;;;;;;16.67;8.90;;;-1.20;99.90;-2.00;102168;;;;540088;262;24186;-75
2023/01/25 03:47:01;;;;;;;21.10;14.93;;;-1.20;99.90;-2.00;102182;;;;539827;262;24178;-74
2023/01/25 03:49:26;;;;;;;20.37;14.77;;;-1.20;99.90;-2.00;102176;;;;539956;262;25230;-75
2023/01/25 03:51:56;;;;;;;19.63;14.93;;;-1.20;99.90;-2.00;102162;;;;539752;262;24241;-74
2023/01/25 03:54:22;;;;;;;19.13;14.70;;;-1.20;99.90;-2.00;102167;;;;539717;262;24186;-77
2023/01/25 03:56:50;;;;;;;21.13;15.97;;;-1.20;99.90;-2.00;102169;;;;546336;258;24220;-74
2023/01/25 03:59:18;;;;;;;21.97;16.13;;;-1.20;99.90;-2.00;102166;;;;539849;262;24170;-74
2023/01/25 04:01:47;;;;;;;20.43;15.60;;;-1.20;99.90;-2.00;102158;;;;539970;262;24165;-74
2023/01/25 04:04:14;;;;;;;19.33;14.90;;;-1.20;99.90;-2.00;102164;;;;540964;262;24186;-74
2023/01/25 04:06:42;;;;;;;19.33;15.70;;;-1.20;99.90;-2.10;102165;;;;540235;262;24235;-74
2023/01/25 04:09:14;;;;;;;20.13;14.23;;;-1.20;99.90;-2.10;102157;;;;540220;262;24197;-72
2023/01/25 04:11:38;;;;;;;17.43;13.93;;;-1.20;99.90;-2.10;102160;;;;538788;262;24239;-73
2023/01/25 04:14:07;;;;;;;17.33;13.63;;;-1.20;99.90;-2.10;102158;;;;540221;262;24162;-69
2023/01/25 04:16:36;;;;;;;20.10;15.17;;;-1.20;99.90;-2.10;102150;;;;540287;262;24182;-76
2023/01/25 04:19:04;;;;;;;18.40;14.57;;;-1.20;99.90;-2.10;102155;;;;540408;262;24170;-74
2023/01/25 04:21:34;;;;;;;18.37;14.20;;;-1.20;99.90;-2.10;102155;;;;541626;262;24153;-72
2023/01/25 04:23:59;;;;;;;22.37;17.25;;;-1.20;99.90;-2.10;102145;;;;535134;262;35886;-73
2023/01/25 04:26:27;;;;;;;15.90;13.07;;;-1.20;99.90;-2.10;102138;;;;541001;262;24174;-72
2023/01/25 04:28:55;;;;;;;18.13;15.30;;;-1.30;99.90;-2.10;102131;;;;540960;262;24178;-73
2023/01/25 04:31:23;;;;;;;24.00;15.57;;;-1.30;99.90;-2.20;102139;;;;540774;262;24172;-73
2023/01/25 04:33:55;;;;;;;18.87;14.30;;;-1.30;99.90;-2.20;102131;;;;540619;262;24286;-76
2023/01/25 04:36:19;;;;;;;17.93;14.23;;;-1.30;99.90;-2.20;102137;;;;539088;262;24259;-74
2023/01/25 04:38:47;;;;;;;18.77;14.57;;;-1.40;99.90;-2.30;102125;;;;540439;262;24161;-76
2023/01/25 04:41:15;;;;;;;19.10;14.63;;;-1.40;99.90;-2.30;102120;;;;541386;262;25207;-78
2023/01/25 04:43:43;;;;;;;18.67;14.13;;;-1.40;99.90;-2.30;102127;;;;540739;262;24185;-76
2023/01/25 04:46:12;;;;;;;21.13;14.87;;;-1.50;99.90;-2.30;102117;;;;540731;262;24226;-76
2023/01/25 04:48:39;;;;;;;19.23;15.17;;;-1.50;99.90;-2.40;102117;;;;540690;262;24162;-76
2023/01/25 04:51:08;;;;;;;19.30;14.60;;;-1.50;99.90;-2.40;102116;;;;540653;262;24168;-76
2023/01/25 04:53:34;;;;;;;21.50;15.17;;;-1.50;99.90;-2.40;102111;;;;540738;262;24156;-79
2023/01/25 04:56:02;;;;;;;19.90;16.13;;;-1.60;99.90;-2.40;102112;;;;540720;262;24188;-77
2023/01/25 04:58:30;;;;;;;22.33;16.33;;;-1.60;99.90;-2.40;102117;;;;540264;262;24187;-74
2023/01/25 05:01:01;;;;;;;21.23;15.43;;;-1.60;99.90;-2.40;102109;;;;540087;262;24251;-78
2023/01/25 05:03:29;;;;;;;23.23;15.83;;;-1.60;99.90;-2.40;102105;;;;539730;262;24183;-79
2023/01/25 05:05:57;;;;;;;19.70;14.57;;;-1.60;99.90;-2.40;102103;;;;538871;262;24159;-79
2023/01/25 05:08:26;;;;;;;19.43;14.20;;;-1.60;99.90;-2.40;102104;;;;540200;262;24165;-77
2023/01/25 05:10:54;;;;;;;20.43;14.10;;;-1.60;99.90;-2.40;102102;;;;540130;262;24170;-79
2023/01/25 05:13:22;;;;;;;21.43;15.97;;;-1.60;99.90;-2.40;102090;;;;540148;262;24244;-77
2023/01/25 05:15:49;;;;;;;22.90;15.87;;;-1.60;99.90;-2.40;102096;;;;540168;262;24225;-77
2023/01/25 05:18:17;;;;;;;23.20;15.43;;;-1.60;99.90;-2.40;102094;;;;540168;262;24166;-76
2023/01/25 05:20:45;;;;;;;24.27;15.73;;;-1.60;99.90;-2.40;102096;;;;540243;262;24162;-72
2023/01/25 05:23:13;;;;;;;25.93;16.53;;;-1.60;99.90;-2.40;102088;;;;540164;262;24172;-74
2023/01/25 05:28:27;;;;;;;29.50;18.37;;;-1.60;99.90;-2.40;102090;;;;546792;261;24189;-74
2023/01/25 05:30:56;;;;;;;33.20;21.67;;;-1.60;99.90;-2.40;102081;;;;535664;260;35866;-75
2023/01/25 05:33:24;;;;;;;27.07;16.30;;;-1.60;99.90;-2.40;102078;;;;541477;262;24161;-73
2023/01/25 05:35:52;;;;;;;25.10;18.27;;;-1.60;99.90;-2.40;102080;;;;540890;262;24270;-76
2023/01/25 05:38:20;;;;;;;30.37;19.13;;;-1.60;99.90;-2.40;102088;;;;540497;262;24175;-78
2023/01/25 05:40:48;;;;;;;27.60;18.00;;;-1.60;99.90;-2.40;102078;;;;540499;262;24212;-78
2023/01/25 05:43:17;;;;;;;30.13;18.97;;;-1.60;99.90;-2.40;102087;;;;540279;262;24224;-74
2023/01/25 05:45:45;;;;;;;31.30;19.87;;;-1.60;99.90;-2.40;102095;;;;540140;262;24213;-77
2023/01/25 05:48:13;;;;;;;33.63;19.53;;;-1.60;99.90;-2.30;102084;;;;539001;262;24201;-78
2023/01/25 05:50:41;;;;;;;34.60;18.93;;;-1.50;99.90;-2.30;102092;;;;540068;262;24188;-79
2023/01/25 05:53:10;;;;;;;37.33;21.43;;;-1.50;99.90;-2.30;102083;;;;540195;262;25235;-78
2023/01/25 05:55:39;;;;;;;38.90;20.23;;;-1.50;99.90;-2.30;102080;;;;540085;262;24215;-73
2023/01/25 05:58:07;;;;;;;34.57;22.03;;;-1.50;99.90;-2.30;102077;;;;540176;262;24181;-79
2023/01/25 06:00:36;;;;;;;36.33;21.17;;;-1.50;99.90;-2.30;102085;;;;540050;262;24159;-78
2023/01/25 06:03:05;;;;;;;39.80;21.43;;;-1.50;99.90;-2.30;102079;;;;540057;262;24170;-79
2023/01/25 06:05:34;;;;;;;38.57;22.23;;;-1.50;99.90;-2.30;102080;;;;540106;262;24162;-76
2023/01/25 06:08:06;;;;;;;35.50;21.03;;;-1.40;99.90;-2.20;102072;;;;540264;262;24233;-78
2023/01/25 06:10:31;;;;;;;43.87;21.77;;;-1.40;99.90;-2.20;102069;;;;539833;262;24211;-77
2023/01/25 06:13:02;;;;;;;44.63;23.53;;;-1.40;99.90;-2.20;102080;;;;540133;262;24198;-77
2023/01/25 06:15:28;;;;;;;36.23;20.73;;;-1.40;99.90;-2.20;102075;;;;546537;262;24219;-74
2023/01/25 06:17:57;;;;;;;40.37;22.77;;;-1.40;99.90;-2.20;102073;;;;540172;262;24171;-75
2023/01/25 06:20:26;;;;;;;47.07;23.07;;;-1.40;99.90;-2.20;102075;;;;540143;262;24177;-74
2023/01/25 06:22:54;;;;;;;44.40;22.57;;;-1.40;99.90;-2.20;102074;;;;540219;262;24177;-72
2023/01/25 06:25:25;;;;;;;43.90;23.27;;;-1.40;99.90;-2.20;102078;;;;540141;262;24174;-79
2023/01/25 06:27:50;;;;;;;44.27;22.57;;;-1.30;99.90;-2.10;102068;;;;538701;262;24158;-78
2023/01/25 06:30:19;;;;;;;43.30;23.53;;;-1.30;99.90;-2.10;102071;;;;540215;262;24199;-77
2023/01/25 06:32:49;;;;;;;49.60;23.90;;;-1.30;99.90;-2.10;102069;;;;540134;262;24193;-76
2023/01/25 06:35:16;;;;;;;46.17;22.67;;;-1.30;99.90;-2.10;102067;;;;540132;262;24158;-75
2023/01/25 06:37:47;;;;;;;43.47;22.47;;;-1.30;99.90;-2.10;102055;;;;546260;261;26373;-76
2023/01/25 06:40:12;;;;;;;50.10;27.00;;;-1.20;99.90;-2.00;102059;;;;539696;262;24182;-78
2023/01/25 06:42:40;;;;;;;70.63;34.47;;;-1.20;99.90;-2.00;102056;;;;540089;260;24167;-77
2023/01/25 06:45:08;;;;;;;54.17;28.23;;;-1.20;99.90;-2.00;102064;;;;541148;262;24191;-77
2023/01/25 06:47:36;;;;;;;45.80;24.43;;;-1.20;99.90;-2.00;102058;;;;547157;262;24192;-75
2023/01/25 06:50:04;;;;;;;51.50;23.97;;;-1.20;99.90;-2.00;102053;;;;540842;262;24255;-74
2023/01/25 06:52:35;;;;;;;39.87;23.40;;;-1.20;99.90;-2.00;102043;;;;539069;262;24235;-74
2023/01/25 06:55:00;;;;;;;52.55;27.17;;;-1.20;99.90;-2.00;102045;;;;535343;262;35826;-77
2023/01/25 06:57:28;;;;;;;39.73;16.20;;;-1.20;99.90;-2.00;102054;;;;540410;262;24169;-74
2023/01/25 06:59:56;;;;;;;45.23;23.43;;;-1.20;99.90;-2.00;102046;;;;546720;262;24216;-73
2023/01/25 07:02:24;;;;;;;51.17;24.13;;;-1.20;99.90;-2.00;102052;;;;535395;262;24166;-75
2023/01/25 07:04:54;;;;;;;48.20;24.43;;;-1.10;99.90;-1.90;102070;;;;559390;246;24122;-77
2023/01/25 07:07:22;;;;;;;47.00;24.57;;;-1.10;99.90;-1.90;102066;;;;564981;250;25165;-77
2023/01/25 07:09:50;;;;;;;47.30;23.90;;;-1.10;99.90;-1.90;102054;;;;565321;250;24116;-78
2023/01/25 07:12:21;;;;;;;42.77;22.50;;;-1.10;99.90;-1.80;102057;;;;569705;250;24068;-78
2023/01/25 07:14:48;;;;;;;47.83;25.37;;;-1.10;99.90;-1.80;102047;;;;563516;250;24119;-79
2023/01/25 07:17:14;;;;;;;49.22;25.88;;;-1.00;99.90;-1.80;102049;;;;558820;250;35324;-81
2023/01/25 07:19:42;;;;;;;35.10;14.57;;;-1.00;99.90;-1.80;102062;;;;563286;251;24100;-81
2023/01/25 07:22:10;;;;;;;39.27;21.00;;;-1.00;99.90;-1.70;102054;;;;575357;245;24109;-78
2023/01/25 07:24:42;;;;;;;50.70;24.70;;;-0.90;99.90;-1.70;102058;;;;565154;250;24127;-81
2023/01/25 07:27:06;;;;;;;45.03;23.00;;;-0.90;99.90;-1.70;102054;;;;571678;249;24141;-81
2023/01/25 07:29:34;;;;;;;47.77;23.83;;;-0.90;99.90;-1.70;102065;;;;563688;251;24118;-78
2023/01/25 07:32:02;;;;;;;41.37;22.30;;;-0.90;99.90;-1.70;102061;;;;563657;251;24084;-79
2023/01/25 07:34:30;;;;;;;41.93;22.10;;;-0.90;99.90;-1.70;102063;;;;563628;251;24096;-81
2023/01/25 07:36:58;;;;;;;35.73;21.20;;;-0.80;99.90;-1.70;102052;;;;563633;251;24127;-78
2023/01/25 07:39:26;;;;;;;37.00;20.00;;;-0.80;99.90;-1.60;102050;;;;563105;251;24106;-80
2023/01/25 07:41:54;;;;;;;36.03;20.33;;;-0.80;99.90;-1.60;102041;;;;563348;251;24143;-77
2023/01/25 07:44:22;;;;;;;39.77;22.20;;;-0.80;99.90;-1.50;102042;;;;563224;251;24123;-79
2023/01/25 07:46:51;;;;;;;44.33;24.33;;;-0.70;99.90;-1.50;102044;;;;558392;251;35425;-78
2023/01/25 07:49:19;;;;;;;24.43;11.37;;;-0.70;99.90;-1.50;102043;;;;563106;251;24178;-78
2023/01/25 07:51:47;;;;;;;26.97;11.97;;;-0.70;99.90;-1.50;102033;;;;563355;251;24147;-79
2023/01/25 07:54:16;;;;;;;33.20;17.50;;;-0.60;99.90;-1.50;102031;;;;563634;249;24107;-78
2023/01/25 07:56:43;;;;;;;41.03;20.77;;;-0.60;99.90;-1.40;102033;;;;564472;248;24208;-78
2023/01/25 07:59:14;;;;;;;40.67;21.60;;;-0.60;99.90;-1.40;102030;;;;560041;253;24159;-80
2023/01/25 08:01:39;;;;;;;42.73;22.63;;;-0.60;99.90;-1.40;102027;;;;576749;245;24090;-81
2023/01/25 08:04:11;;;;;;;42.23;23.50;;;-0.60;99.90;-1.40;102027;;;;576903;242;24036;-77
2023/01/25 08:06:37;;;;;;;46.63;23.77;;;-0.60;99.90;-1.30;102020;;;;575943;245;24061;-78
2023/01/25 08:09:03;;;;;;;39.57;22.50;;;-0.50;99.90;-1.30;102023;;;;576800;245;24065;-79
2023/01/25 08:11:31;;;;;;;43.47;22.07;;;-0.50;99.90;-1.30;102030;;;;576896;245;24147;-78
2023/01/25 08:14:00;;;;;;;44.22;18.50;;;-0.40;99.90;-1.20;102017;;;;571463;245;35207;-79
2023/01/25 08:16:27;;;;;;;33.67;13.43;;;-0.40;99.90;-1.20;102019;;;;576599;245;24055;-77
2023/01/25 08:18:55;;;;;;;31.33;13.00;;;-0.40;99.90;-1.10;102017;;;;576672;245;24057;-77
2023/01/25 08:21:34;;;;;;;38.55;18.77;;;-0.30;99.90;-1.10;102007;;;;556579;250;35374;-77
2023/01/25 08:23:52;;;;;;;38.13;13.40;;;-0.30;99.90;-1.00;102012;;;;561153;252;24185;-78
2023/01/25 08:26:21;;;;;;;27.53;11.90;;;-0.10;99.90;-0.90;102003;;;;552562;255;24124;-81
2023/01/25 08:28:52;;;;;;;37.87;13.67;;;-0.10;99.90;-0.90;101999;;;;552516;256;25238;-77
2023/01/25 08:31:18;;;;;;;22.47;11.50;;;0.00;99.90;-0.80;102000;;;;562559;251;24095;-77
2023/01/25 08:33:50;;;;;;;36.30;14.67;;;0.00;99.90;-0.80;102011;;;;560309;255;24136;-76
2023/01/25 08:36:17;;;;;;;40.03;19.77;;;0.00;99.90;-0.80;102013;;;;552065;256;24123;-78
2023/01/25 08:38:42;;;;;;;49.33;22.50;;;0.00;99.90;-0.70;102012;;;;547516;256;24136;-78
2023/01/25 08:41:16;;;;;;;42.53;23.90;;;0.10;99.90;-0.70;102013;;;;552212;256;24159;-79
2023/01/25 08:43:46;;;;;;;41.70;22.27;;;0.10;99.90;-0.80;102015;;;;552004;255;24140;-77
2023/01/25 08:46:11;;;;;;;45.27;24.50;;;0.10;99.90;-0.80;102014;;;;547230;256;24124;-78
2023/01/25 08:48:40;;;;;;;45.43;23.30;;;0.00;99.90;-0.70;102015;;;;547309;252;24177;-80
2023/01/25 08:51:09;;;;;;;47.10;25.37;;;0.00;99.90;-0.70;102006;;;;552146;256;24121;-78
2023/01/25 08:53:38;;;;;;;50.03;25.27;;;0.00;99.90;-0.70;102008;;;;552097;256;24162;-78
2023/01/25 08:56:06;;;;;;;45.97;24.23;;;0.10;99.90;-0.70;102002;;;;552074;256;24125;-78
2023/01/25 08:58:34;;;;;;;46.37;24.67;;;0.00;99.90;-0.60;101995;;;;552099;256;25155;-79
2023/01/25 09:01:03;;;;;;;52.97;24.37;;;0.10;99.90;-0.60;101985;;;;547646;256;24132;-76
2023/01/25 09:03:31;;;;;;;50.77;23.57;;;0.30;99.90;-0.50;101986;;;;552096;255;24145;-78
2023/01/25 09:05:59;;;;;;;50.70;24.93;;;0.30;99.90;-0.50;101990;;;;552397;255;24155;-77
2023/01/25 09:08:27;;;;;;;50.37;24.37;;;0.30;99.90;-0.40;101983;;;;553519;255;24136;-78
2023/01/25 09:10:54;;;;;;;51.63;23.77;;;0.30;99.90;-0.40;101988;;;;553325;255;24134;-78
2023/01/25 09:13:22;;;;;;;46.33;24.47;;;0.30;99.90;-0.40;101977;;;;553133;254;24147;-77
2023/01/25 09:15:50;;;;;;;46.17;23.27;;;0.40;99.90;-0.30;101971;;;;552918;255;24161;-82
2023/01/25 09:18:18;;;;;;;55.30;24.67;;;0.40;99.90;-0.30;101981;;;;553181;253;24131;-78
2023/01/25 09:20:46;;;;;;;49.43;21.87;;;0.40;99.90;-0.30;101980;;;;552919;255;24195;-78
2023/01/25 09:23:14;;;;;;;53.53;22.73;;;0.50;99.90;-0.20;101973;;;;552915;255;24122;-78
2023/01/25 09:25:42;;;;;;;46.67;22.53;;;0.50;99.90;-0.10;101976;;;;552609;256;24131;-78
2023/01/25 09:28:10;;;;;;;37.67;18.97;;;0.60;99.90;-0.10;101976;;;;552645;256;24167;-77
2023/01/25 09:30:38;;;;;;;34.60;15.70;;;0.70;99.90;0.00;101974;;;;548149;256;24124;-78
2023/01/25 09:33:06;;;;;;;34.60;15.63;;;0.70;99.90;0.00;101973;;;;552606;255;24136;-77
2023/01/25 09:35:34;;;;;;;30.97;12.17;;;0.70;99.90;0.00;101975;;;;552574;256;24162;-77
2023/01/25 09:38:02;;;;;;;37.43;14.60;;;0.70;99.90;0.00;101967;;;;552486;256;24232;-78
2023/01/25 09:40:29;;;;;;;32.53;14.87;;;0.80;99.90;0.10;101958;;;;552571;254;24151;-78
2023/01/25 09:43:00;;;;;;;32.50;14.10;;;0.80;99.90;0.10;101959;;;;551866;256;25217;-77
2023/01/25 09:45:31;;;;;;;40.83;15.87;;;0.90;99.90;0.20;101954;;;;551773;255;24127;-77
2023/01/25 09:48:20;;;;;;;49.43;16.63;;;0.90;99.90;0.30;101957;;;;551836;255;24125;-77
2023/01/25 09:51:12;;;;;;;40.70;14.40;;;1.00;99.90;0.30;101946;;;;554338;259;24162;-77
2023/01/25 09:53:39;;;;;;;30.43;13.97;;;1.10;99.90;0.40;101932;;;;576638;245;24069;-78
2023/01/25 09:56:22;;;;;;;37.90;14.03;;;1.10;99.90;0.40;101942;;;;575417;245;24111;-81
2023/01/25 09:58:50;;;;;;;34.47;13.57;;;1.10;99.90;0.50;101923;;;;584846;245;24081;-78
2023/01/25 10:01:26;;;;;;;30.70;12.63;;;1.20;99.90;0.60;101929;;;;560804;253;24102;-81
2023/01/25 10:04:09;;;;;;;36.07;14.20;;;1.30;99.90;0.60;101924;;;;561021;253;24093;-80
2023/01/25 10:06:40;;;;;;;28.93;15.00;;;1.30;99.90;0.60;101918;;;;561135;253;24107;-78
2023/01/25 10:09:42;;;;;;;31.83;14.97;;;1.30;99.90;0.60;101904;;;;560935;253;24096;-78
2023/01/25 10:12:16;;;;;;;44.43;16.23;;;1.30;99.90;0.80;101899;;;;561197;253;24106;-77
2023/01/25 10:14:44;;;;;;;32.43;14.50;;;1.70;99.90;1.00;101894;;;;560562;253;24140;-77
2023/01/25 10:17:40;;;;;;;29.20;14.67;;;1.80;99.90;1.10;101885;;;;569574;250;24090;-77
2023/01/25 10:20:16;;;;;;;28.63;13.40;;;1.80;99.90;1.40;101876;;;;562492;252;24192;-77
2023/01/25 10:23:09;;;;;;;34.30;14.77;;;2.20;99.90;1.60;101880;;;;561747;252;25136;-78
2023/01/25 10:25:49;;;;;;;30.40;15.30;;;2.20;99.90;1.60;101873;;;;561725;252;24118;-77
2023/01/25 10:28:38;;;;;;;39.53;14.90;;;2.30;99.90;1.40;101871;;;;561366;252;24091;-77
2023/01/25 10:31:18;;;;;;;34.17;15.63;;;2.20;99.90;1.30;101862;;;;561759;252;24098;-78
2023/01/25 10:33:49;;;;;;;28.60;13.80;;;2.00;99.90;1.20;101853;;;;556626;252;24124;-77
2023/01/25 10:36:16;;;;;;;34.60;13.80;;;1.90;99.90;1.30;101861;;;;562610;251;24095;-78
2023/01/25 10:38:45;;;;;;;35.33;14.30;;;2.00;99.90;1.40;101857;;;;562224;251;24099;-77
2023/01/25 10:41:21;;;;;;;33.83;15.33;;;2.10;99.90;1.50;101853;;;;562449;251;24166;-80
2023/01/25 10:44:20;;;;;;;30.77;13.97;;;2.20;99.90;1.40;101848;;;;570094;251;24148;-79
2023/01/25 10:46:22;;;;;;;29.37;12.40;;;2.10;99.90;1.30;101834;;;;556534;251;24159;-83
2023/01/25 10:48:51;;;;;;;30.60;13.93;;;1.80;99.90;1.10;101834;;;;570260;250;24204;-79
2023/01/25 10:51:34;;;;;;;33.57;14.90;;;1.70;99.90;1.00;101832;;;;571163;244;24131;-83
2023/01/25 10:54:02;;;;;;;27.97;14.30;;;1.70;99.90;0.90;101831;;;;561413;251;24084;-80
2023/01/25 10:56:32;;;;;;;32.73;16.20;;;1.60;99.90;0.80;101819;;;;562322;251;24103;-80
2023/01/25 10:59:18;;;;;;;34.73;14.10;;;1.50;99.90;0.60;101806;;;;562242;251;24154;-80
2023/01/25 11:01:46;;;;;;;32.73;15.97;;;1.40;99.90;0.50;101803;;;;570949;251;24095;-80
2023/01/25 11:04:31;;;;;;;41.37;14.97;;;1.20;99.90;0.40;101800;;;;562308;250;25125;-82
2023/01/25 11:06:59;;;;;;;27.67;15.70;;;1.20;99.90;0.40;101803;;;;570150;250;24079;-80
2023/01/25 11:09:33;;;;;;;34.97;13.63;;;1.10;99.90;0.40;101798;;;;562383;251;24080;-79